createdAt,value
2022-11-12T00:00:55.544Z,102176.06
2022-11-12T00:02:17.160Z,102177.56
2022-11-12T00:03:39.073Z,102169.66
2022-11-12T00:05:00.822Z,102175.75
2022-11-12T00:06:22.406Z,102189.72
2022-11-12T00:07:44.120Z,102181.59
2022-11-12T00:09:05.738Z,102182.31
2022-11-12T00:10:28.043Z,102183.06
2022-11-12T00:11:50.039Z,102184.94
2022-11-12T00:13:11.965Z,102177.66
2022-11-12T00:14:33.768Z,102182.44
2022-11-12T00:15:55.489Z,102186.59
2022-11-12T00:17:17.330Z,102183.00
2022-11-12T00:18:38.826Z,102183.13
2022-11-12T00:20:00.646Z,102187.69
2022-11-12T00:21:22.168Z,102189.66
2022-11-12T00:22:43.883Z,102185.44
2022-11-12T00:24:05.624Z,102188.19
2022-11-12T00:25:27.072Z,102192.34
2022-11-12T00:26:48.658Z,102191.09
2022-11-12T00:28:11.385Z,102190.31
2022-11-12T00:29:33.222Z,102181.59
2022-11-12T00:30:54.887Z,102182.59
2022-11-12T00:32:16.623Z,102186.19
2022-11-12T00:33:43.422Z,102189.59
2022-11-12T00:35:08.694Z,102189.25
2022-11-12T00:36:32.903Z,102191.72
2022-11-12T00:37:57.888Z,102186.50
2022-11-12T00:39:19.510Z,102184.69
2022-11-12T00:40:42.236Z,102188.75
2022-11-12T00:42:04.260Z,102181.00
2022-11-12T00:43:26.006Z,102185.44
2022-11-12T00:44:47.580Z,102184.59
2022-11-12T00:46:08.923Z,102191.38
2022-11-12T00:47:30.427Z,102185.38
2022-11-12T00:48:51.852Z,102177.41
2022-11-12T00:50:13.400Z,102194.22
2022-11-12T00:51:35.607Z,102181.22
2022-11-12T00:52:57.331Z,102176.81
2022-11-12T00:54:18.690Z,102184.34
2022-11-12T00:55:40.192Z,102187.31
2022-11-12T00:57:01.892Z,102179.09
2022-11-12T00:58:23.860Z,102187.75
2022-11-12T00:59:45.760Z,102183.41
2022-11-12T01:01:15.223Z,102178.25
2022-11-12T01:02:42.373Z,102171.47
2022-11-12T01:04:05.416Z,102177.22
2022-11-12T01:05:26.775Z,102176.25
2022-11-12T01:06:48.176Z,102169.97
2022-11-12T01:08:09.986Z,102168.06
2022-11-12T01:09:31.698Z,102174.81
2022-11-12T01:10:52.913Z,102167.72
2022-11-12T01:12:14.324Z,102174.69
2022-11-12T01:13:38.852Z,102164.84
2022-11-12T01:15:06.928Z,102171.22
2022-11-12T01:16:34.755Z,102165.44
2022-11-12T01:17:56.479Z,102171.00
2022-11-12T01:19:18.558Z,102166.34
2022-11-12T01:20:40.209Z,102173.63
2022-11-12T01:22:01.479Z,102166.56
2022-11-12T01:23:23.060Z,102171.22
2022-11-12T01:24:44.528Z,102170.34
2022-11-12T01:26:13.139Z,102166.56
2022-11-12T01:27:34.855Z,102169.44
2022-11-12T01:28:57.392Z,102170.69
2022-11-12T01:30:19.083Z,102178.41
2022-11-12T01:31:40.685Z,102176.63
2022-11-12T01:33:02.155Z,102174.81
2022-11-12T01:34:23.716Z,102168.69
2022-11-12T01:35:45.467Z,102170.53
2022-11-12T01:37:06.988Z,102176.63
2022-11-12T01:38:28.984Z,102176.38
2022-11-12T01:39:50.607Z,102179.31
2022-11-12T01:41:34.513Z,102173.84
2022-11-12T01:42:56.076Z,102171.13
2022-11-12T01:44:25.171Z,102176.38
2022-11-12T01:45:51.056Z,102178.28
2022-11-12T01:47:22.600Z,102173.03
2022-11-12T01:48:59.855Z,102174.97
2022-11-12T01:50:30.794Z,102181.88
2022-11-12T01:51:56.508Z,102177.13
2022-11-12T01:53:19.285Z,102181.72
2022-11-12T01:54:42.511Z,102183.41
2022-11-12T01:56:05.768Z,102183.41
2022-11-12T01:57:36.345Z,102179.84
2022-11-12T01:59:12.103Z,102186.09
2022-11-12T02:00:33.561Z,102184.81
2022-11-12T02:01:55.012Z,102176.31
2022-11-12T02:03:21.850Z,102178.88
2022-11-12T02:04:43.567Z,102178.03
2022-11-12T02:06:13.619Z,102172.78
2022-11-12T02:07:39.019Z,102178.34
2022-11-12T02:09:01.034Z,102169.94
2022-11-12T02:10:23.010Z,102170.84
2022-11-12T02:11:44.539Z,102172.19
2022-11-12T02:13:24.566Z,102183.00
2022-11-12T02:14:46.422Z,102169.63
2022-11-12T02:16:10.598Z,102175.97
2022-11-12T02:17:32.191Z,102176.75
2022-11-12T02:18:53.812Z,102171.28
2022-11-12T02:20:16.531Z,102175.03
2022-11-12T02:21:39.258Z,102177.38
2022-11-12T02:23:00.877Z,102174.75
2022-11-12T02:24:21.973Z,102174.81
2022-11-12T02:25:43.485Z,102175.47
2022-11-12T02:27:06.882Z,102173.16
2022-11-12T02:28:31.213Z,102175.47
2022-11-12T02:29:52.621Z,102179.03
2022-11-12T02:31:14.139Z,102177.88
2022-11-12T02:32:35.638Z,102178.78
2022-11-12T02:33:57.494Z,102182.22
2022-11-12T02:35:18.761Z,102185.81
2022-11-12T02:36:40.534Z,102182.47
2022-11-12T02:38:02.563Z,102186.06
2022-11-12T02:39:23.968Z,102178.13
2022-11-12T02:40:45.534Z,102180.81
2022-11-12T02:42:07.563Z,102189.66
2022-11-12T02:43:29.502Z,102187.88
2022-11-12T02:44:51.242Z,102182.63
2022-11-12T02:46:13.244Z,102189.66
2022-11-12T02:47:34.809Z,102183.38
2022-11-12T02:48:56.520Z,102186.06
2022-11-12T02:50:18.746Z,102191.31
2022-11-12T02:51:40.249Z,102191.53
2022-11-12T02:53:01.603Z,102192.28
2022-11-12T02:54:23.191Z,102191.47
2022-11-12T02:55:44.778Z,102192.03
2022-11-12T02:57:06.206Z,102191.22
2022-11-12T02:58:29.374Z,102191.06
2022-11-12T02:59:52.181Z,102190.31
2022-11-12T03:01:13.720Z,102194.78
2022-11-12T03:02:35.401Z,102189.66
2022-11-12T03:03:57.271Z,102187.88
2022-11-12T03:05:19.205Z,102188.84
2022-11-12T03:06:41.006Z,102193.25
2022-11-12T03:08:07.549Z,102195.06
2022-11-12T03:09:29.001Z,102201.28
2022-11-12T03:10:50.957Z,102197.16
2022-11-12T03:12:12.458Z,102190.94
2022-11-12T03:13:34.122Z,102204.19
2022-11-12T03:14:55.614Z,102199.91
2022-11-12T03:16:17.343Z,102198.19
2022-11-12T03:17:39.001Z,102196.19
2022-11-12T03:19:00.204Z,102196.19
2022-11-12T03:20:21.617Z,102201.50
2022-11-12T03:21:43.122Z,102201.28
2022-11-12T03:23:11.014Z,102198.72
2022-11-12T03:24:32.878Z,102199.63
2022-11-12T03:25:54.343Z,102199.69
2022-11-12T03:27:17.112Z,102206.69
2022-11-12T03:28:38.778Z,102212.75
2022-11-12T03:30:00.436Z,102203.72
2022-11-12T03:31:21.716Z,102208.31
2022-11-12T03:32:43.070Z,102209.28
2022-11-12T03:34:04.660Z,102208.22
2022-11-12T03:35:26.898Z,102194.88
2022-11-12T03:36:48.531Z,102206.28
2022-11-12T03:38:10.132Z,102209.72
2022-11-12T03:39:31.556Z,102205.84
2022-11-12T03:40:53.519Z,102213.88
2022-11-12T03:42:14.842Z,102209.56
2022-11-12T03:43:36.414Z,102207.50
2022-11-12T03:44:57.993Z,102212.91
2022-11-12T03:46:19.194Z,102218.28
2022-11-12T03:47:47.346Z,102211.25
2022-11-12T03:49:08.664Z,102204.88
2022-11-12T03:50:30.715Z,102208.06
2022-11-12T03:51:52.277Z,102203.91
2022-11-12T03:53:13.890Z,102203.47
2022-11-12T03:54:35.280Z,102205.44
2022-11-12T03:55:56.989Z,102203.78
2022-11-12T03:57:18.831Z,102206.34
2022-11-12T03:58:40.396Z,102203.78
2022-11-12T04:00:02.060Z,102200.03
2022-11-12T04:01:23.753Z,102199.53
2022-11-12T04:02:45.525Z,102198.53
2022-11-12T04:04:07.169Z,102201.19
2022-11-12T04:05:47.641Z,102201.69
2022-11-12T04:07:28.034Z,102197.81
2022-11-12T04:08:49.410Z,102198.06
2022-11-12T04:10:11.122Z,102199.00
2022-11-12T04:11:32.596Z,102196.44
2022-11-12T04:13:12.847Z,102195.53
2022-11-12T04:14:34.692Z,102201.53
2022-11-12T04:16:30.253Z,102196.28
2022-11-12T04:18:10.169Z,102197.81
2022-11-12T04:19:50.291Z,102199.78
2022-11-12T04:21:33.769Z,102194.56
2022-11-12T04:22:55.715Z,102200.88
2022-11-12T04:24:55.197Z,102194.56
2022-11-12T04:26:25.671Z,102203.06
2022-11-12T04:27:47.037Z,102199.69
2022-11-12T04:29:27.636Z,102199.78
2022-11-12T04:30:49.401Z,102191.06
2022-11-12T04:32:10.999Z,102200.59
2022-11-12T04:33:32.873Z,102201.44
2022-11-12T04:34:54.693Z,102201.94
2022-11-12T04:36:16.346Z,102200.44
2022-11-12T04:37:47.093Z,102194.09
2022-11-12T04:39:08.730Z,102191.75
2022-11-12T04:40:49.293Z,102192.72
2022-11-12T04:42:30.452Z,102194.97
2022-11-12T04:44:10.721Z,102201.13
2022-11-12T04:45:31.947Z,102198.44
2022-11-12T04:46:53.703Z,102197.41
2022-11-12T04:48:15.607Z,102193.97
2022-11-12T04:49:37.016Z,102196.09
2022-11-12T04:51:28.746Z,102198.72
2022-11-12T04:52:50.420Z,102192.44
2022-11-12T04:54:12.167Z,102194.31
2022-11-12T04:55:33.750Z,102195.31
2022-11-12T04:56:55.225Z,102188.56
2022-11-12T04:58:16.655Z,102194.09
2022-11-12T04:59:38.151Z,102189.75
2022-11-12T05:00:59.641Z,102192.31
2022-11-12T05:02:21.708Z,102196.09
2022-11-12T05:03:43.359Z,102196.44
2022-11-12T05:05:05.267Z,102199.22
2022-11-12T05:06:45.621Z,102203.59
2022-11-12T05:08:07.063Z,102204.88
2022-11-12T05:09:29.772Z,102194.16
2022-11-12T05:10:51.351Z,102200.44
2022-11-12T05:12:13.149Z,102199.47
2022-11-12T05:13:34.341Z,102204.72
2022-11-12T05:14:55.969Z,102193.34
2022-11-12T05:16:17.799Z,102206.59
2022-11-12T05:17:46.183Z,102201.84
2022-11-12T05:19:07.877Z,102206.75
2022-11-12T05:20:29.544Z,102205.78
2022-11-12T05:22:06.391Z,102206.50
2022-11-12T05:23:27.665Z,102199.97
2022-11-12T05:24:49.272Z,102208.69
2022-11-12T05:26:11.069Z,102209.13
2022-11-12T05:27:32.837Z,102212.63
2022-11-12T05:28:54.850Z,102212.94
2022-11-12T05:30:16.562Z,102215.63
2022-11-12T05:31:38.214Z,102215.50
2022-11-12T05:32:59.462Z,102219.06
2022-11-12T05:34:23.047Z,102219.31
2022-11-12T05:35:44.645Z,102222.22
2022-11-12T05:37:08.116Z,102215.88
2022-11-12T05:38:29.674Z,102209.03
2022-11-12T05:39:51.604Z,102221.31
2022-11-12T05:41:17.289Z,102216.16
2022-11-12T05:42:41.392Z,102210.25
2022-11-12T05:44:03.388Z,102219.09
2022-11-12T05:45:24.676Z,102222.72
2022-11-12T05:46:46.921Z,102223.44
2022-11-12T05:48:08.406Z,102229.25
2022-11-12T05:49:30.277Z,102217.91
2022-11-12T05:52:37.757Z,102217.41
2022-11-12T05:53:59.572Z,102219.66
2022-11-12T05:55:20.948Z,102226.09
2022-11-12T05:56:42.830Z,102221.00
2022-11-12T05:58:07.737Z,102225.41
2022-11-12T05:59:29.046Z,102230.66
2022-11-12T06:00:50.634Z,102231.47
2022-11-12T06:02:12.342Z,102240.25
2022-11-12T06:03:34.299Z,102233.50
2022-11-12T06:04:56.001Z,102238.00
2022-11-12T06:06:17.751Z,102235.53
2022-11-12T06:07:39.367Z,102240.28
2022-11-12T06:09:00.922Z,102237.13
2022-11-12T06:10:22.370Z,102241.50
2022-11-12T06:11:43.886Z,102236.13
2022-11-12T06:13:05.780Z,102236.13
2022-11-12T06:14:27.166Z,102239.75
2022-11-12T06:15:48.575Z,102239.31
2022-11-12T06:17:10.256Z,102241.09
2022-11-12T06:18:32.272Z,102235.63
2022-11-12T06:19:54.054Z,102240.66
2022-11-12T06:21:24.732Z,102235.00
2022-11-12T06:22:46.375Z,102235.50
2022-11-12T06:24:08.381Z,102234.44
2022-11-12T06:25:30.243Z,102229.47
2022-11-12T06:26:51.748Z,102228.72
2022-11-12T06:28:13.118Z,102232.59
2022-11-12T06:29:34.849Z,102234.41
2022-11-12T06:30:56.753Z,102234.13
2022-11-12T06:32:18.443Z,102250.13
2022-11-12T06:33:39.828Z,102245.63
2022-11-12T06:35:02.148Z,102249.47
2022-11-12T06:36:23.450Z,102243.38
2022-11-12T06:37:49.373Z,102246.84
2022-11-12T06:39:11.735Z,102246.34
2022-11-12T06:40:33.089Z,102247.91
2022-11-12T06:41:55.061Z,102253.47
2022-11-12T06:43:17.148Z,102256.16
2022-11-12T06:44:38.495Z,102258.25
2022-11-12T06:46:15.447Z,102254.78
2022-11-12T06:47:36.967Z,102264.53
2022-11-12T06:48:58.363Z,102265.38
2022-11-12T06:50:20.148Z,102258.13
2022-11-12T06:51:42.243Z,102262.91
2022-11-12T06:53:03.932Z,102270.06
2022-11-12T06:54:26.601Z,102265.34
2022-11-12T06:55:48.192Z,102269.81
2022-11-12T06:57:10.416Z,102279.56
2022-11-12T06:58:32.671Z,102275.88
2022-11-12T06:59:55.686Z,102276.13
2022-11-12T07:01:18.505Z,102280.84
2022-11-12T07:02:40.249Z,102275.50
2022-11-12T07:04:03.123Z,102272.38
2022-11-12T07:05:24.710Z,102277.63
2022-11-12T07:06:46.231Z,102279.47
2022-11-12T07:08:08.215Z,102283.06
2022-11-12T07:09:29.651Z,102282.50
2022-11-12T07:10:59.951Z,102277.38
2022-11-12T07:12:21.496Z,102283.59
2022-11-12T07:13:47.098Z,102278.50
2022-11-12T07:15:09.461Z,102282.22
2022-11-12T07:16:31.196Z,102275.56
2022-11-12T07:17:52.997Z,102274.69
2022-11-12T07:19:14.381Z,102278.13
2022-11-12T07:20:35.734Z,102275.78
2022-11-12T07:21:57.062Z,102278.19
2022-11-12T07:23:18.447Z,102289.16
2022-11-12T07:24:39.886Z,102294.69
2022-11-12T07:26:06.628Z,102294.81
2022-11-12T07:27:31.111Z,102284.47
2022-11-12T07:28:53.483Z,102283.59
2022-11-12T07:30:15.707Z,102293.84
2022-11-12T07:31:37.076Z,102284.84
2022-11-12T07:32:58.940Z,102287.78
2022-11-12T07:34:20.432Z,102291.50
2022-11-12T07:35:42.218Z,102293.84
2022-11-12T07:37:04.027Z,102290.41
2022-11-12T07:38:25.829Z,102285.25
2022-11-12T07:39:47.617Z,102282.69
2022-11-12T07:41:22.388Z,102285.50
2022-11-12T07:42:44.098Z,102282.22
2022-11-12T07:44:05.771Z,102285.94
2022-11-12T07:45:27.172Z,102279.06
2022-11-12T07:46:48.504Z,102286.38
2022-11-12T07:48:10.049Z,102284.78
2022-11-12T07:49:31.203Z,102276.94
2022-11-12T07:50:52.779Z,102281.28
2022-11-12T07:52:14.319Z,102282.03
2022-11-12T07:53:35.836Z,102277.22
2022-11-12T07:54:57.561Z,102278.50
2022-11-12T07:56:23.318Z,102283.34
2022-11-12T07:57:45.124Z,102281.28
2022-11-12T07:59:08.028Z,102282.91
2022-11-12T08:00:29.752Z,102280.41
2022-11-12T08:01:51.212Z,102279.47
2022-11-12T08:03:12.729Z,102268.41
2022-11-12T08:04:34.880Z,102277.19
2022-11-12T08:05:56.467Z,102280.97
2022-11-12T08:07:18.643Z,102276.44
2022-11-12T08:08:40.410Z,102278.09
2022-11-12T08:10:01.799Z,102282.38
2022-11-12T08:11:24.202Z,102285.00
2022-11-12T08:12:45.483Z,102289.63
2022-11-12T08:14:07.129Z,102293.53
2022-11-12T08:15:28.656Z,102294.91
2022-11-12T08:16:50.159Z,102297.28
2022-11-12T08:18:11.796Z,102293.25
2022-11-12T08:19:33.057Z,102300.09
2022-11-12T08:21:04.828Z,102288.84
2022-11-12T08:22:26.688Z,102293.56
2022-11-12T08:23:48.350Z,102292.91
2022-11-12T08:25:10.276Z,102288.56
2022-11-12T08:26:31.399Z,102289.94
2022-11-12T08:28:00.644Z,102299.69
2022-11-12T08:29:23.491Z,102298.22
2022-11-12T08:30:45.213Z,102299.19
2022-11-12T08:32:07.124Z,102302.97
2022-11-12T08:33:28.856Z,102300.84
2022-11-12T08:34:50.499Z,102303.81
2022-11-12T08:36:15.144Z,102303.19
2022-11-12T08:37:36.835Z,102313.94
2022-11-12T08:38:58.248Z,102309.81
2022-11-12T08:40:19.868Z,102311.47
2022-11-12T08:41:41.623Z,102316.13
2022-11-12T08:43:06.703Z,102310.78
2022-11-12T08:44:28.037Z,102309.13
2022-11-12T08:45:50.244Z,102308.84
2022-11-12T08:47:11.988Z,102306.50
2022-11-12T08:48:34.556Z,102308.03
2022-11-12T08:49:56.195Z,102301.97
2022-11-12T08:51:17.695Z,102307.31
2022-11-12T08:52:39.053Z,102309.88
2022-11-12T08:54:00.882Z,102311.16
2022-11-12T08:55:22.442Z,102313.84
2022-11-12T08:56:43.840Z,102307.63
2022-11-12T08:58:05.796Z,102315.88
2022-11-12T08:59:27.495Z,102310.88
2022-11-12T09:00:50.954Z,102315.25
2022-11-12T09:02:14.170Z,102312.81
2022-11-12T09:03:35.502Z,102323.47
2022-11-12T09:04:56.825Z,102323.19
2022-11-12T09:06:18.552Z,102326.09
2022-11-12T09:07:55.562Z,102324.59
2022-11-12T09:09:17.166Z,102327.28
2022-11-12T09:10:39.772Z,102325.63
2022-11-12T09:12:06.196Z,102321.13
2022-11-12T09:13:32.205Z,102327.38
2022-11-12T09:14:59.565Z,102330.00
2022-11-12T09:16:31.056Z,102327.38
2022-11-12T09:18:02.296Z,102316.78
2022-11-12T09:19:23.891Z,102319.09
2022-11-12T09:20:45.912Z,102322.53
2022-11-12T09:22:07.772Z,102325.06
2022-11-12T09:23:29.844Z,102320.78
2022-11-12T09:24:51.040Z,102328.66
2022-11-12T09:26:12.519Z,102323.25
2022-11-12T09:27:34.005Z,102318.00
2022-11-12T09:28:55.349Z,102317.72
2022-11-12T09:30:17.275Z,102319.66
2022-11-12T09:31:38.509Z,102317.94
2022-11-12T09:32:59.940Z,102317.84
2022-11-12T09:34:21.525Z,102318.84
2022-11-12T09:35:43.841Z,102323.09
2022-11-12T09:37:05.232Z,102330.97
2022-11-12T09:38:27.145Z,102327.03
2022-11-12T09:39:49.065Z,102331.25
2022-11-12T09:41:18.650Z,102336.50
2022-11-12T09:42:41.729Z,102324.75
2022-11-12T09:44:11.266Z,102333.47
2022-11-12T09:45:33.424Z,102324.75
2022-11-12T09:47:02.876Z,102327.53
2022-11-12T09:48:41.864Z,102324.91
2022-11-12T09:50:16.274Z,102328.09
2022-11-12T09:51:51.640Z,102319.00
2022-11-12T09:53:59.389Z,102321.84
2022-11-12T09:55:34.047Z,102323.91
2022-11-12T09:56:55.377Z,102324.28
2022-11-12T09:58:19.684Z,102329.03
2022-11-12T09:59:43.050Z,102326.28
2022-11-12T10:01:18.429Z,102331.44
2022-11-12T10:03:14.543Z,102336.69
2022-11-12T10:05:05.356Z,102332.88
2022-11-12T10:06:39.909Z,102336.75
2022-11-12T10:08:26.190Z,102339.97
2022-11-12T10:10:17.943Z,102344.91
2022-11-12T10:12:32.533Z,102356.16
2022-11-12T10:14:23.343Z,102345.75
2022-11-12T10:16:32.444Z,102342.97
2022-11-12T10:18:28.582Z,102343.13
2022-11-12T10:20:19.242Z,102345.56
2022-11-12T10:22:04.751Z,102345.00
2022-11-12T10:23:36.788Z,102355.00
2022-11-12T10:25:11.381Z,102351.81
2022-11-12T10:26:34.343Z,102353.47
2022-11-12T10:27:56.811Z,102354.31
2022-11-12T10:29:27.589Z,102357.38
2022-11-12T10:30:49.351Z,102351.34
2022-11-12T10:32:15.944Z,102350.34
2022-11-12T10:33:37.324Z,102354.47
2022-11-12T10:34:58.978Z,102356.00
2022-11-12T10:36:33.865Z,102355.09
2022-11-12T10:38:06.050Z,102361.41
2022-11-12T10:39:39.257Z,102356.97
2022-11-12T10:41:27.018Z,102352.72
2022-11-12T10:43:03.116Z,102352.88
2022-11-12T10:44:27.817Z,102350.19
2022-11-12T10:45:51.166Z,102357.72
2022-11-12T10:47:43.065Z,102353.78
2022-11-12T10:49:16.985Z,102352.47
2022-11-12T10:50:43.298Z,102346.81
2022-11-12T10:52:04.988Z,102362.47
2022-11-12T10:53:37.931Z,102353.22
2022-11-12T10:55:18.036Z,102353.63
2022-11-12T10:56:39.916Z,102349.56
2022-11-12T10:58:11.561Z,102347.25
2022-11-12T10:59:33.768Z,102345.47
2022-11-12T11:01:12.269Z,102348.91
2022-11-12T11:02:33.919Z,102341.31
2022-11-12T11:03:58.233Z,102335.09
2022-11-12T11:05:37.460Z,102339.59
2022-11-12T11:07:23.206Z,102340.22
2022-11-12T11:08:49.445Z,102337.03
2022-11-12T11:10:32.098Z,102337.88
2022-11-12T11:11:54.348Z,102327.91
2022-11-12T11:13:26.179Z,102335.09
2022-11-12T11:14:49.322Z,102336.91
2022-11-12T11:16:21.094Z,102338.81
2022-11-12T11:17:42.823Z,102336.69
2022-11-12T11:19:06.429Z,102335.09
2022-11-12T11:20:47.620Z,102337.03
2022-11-12T11:22:38.321Z,102328.19
2022-11-12T11:24:21.591Z,102332.81
2022-11-12T11:25:43.772Z,102331.91
2022-11-12T11:27:34.250Z,102332.84
2022-11-12T11:29:17.019Z,102334.97
2022-11-12T11:30:54.561Z,102336.50
2022-11-12T11:32:52.614Z,102339.47
2022-11-12T11:34:35.579Z,102345.75
2022-11-12T11:36:44.310Z,102340.75
2022-11-12T11:38:49.620Z,102339.28
2022-11-12T11:40:29.102Z,102331.91
2022-11-12T11:42:07.442Z,102344.19
2022-11-12T11:44:22.202Z,102343.44
2022-11-12T11:45:59.724Z,102341.56
2022-11-12T11:47:38.620Z,102332.19
2022-11-12T11:49:47.360Z,102336.03
2022-11-12T11:51:36.092Z,102336.94
2022-11-12T11:53:26.635Z,102333.25
2022-11-12T11:55:36.429Z,102334.09
2022-11-12T11:57:04.056Z,102331.59
2022-11-12T11:58:44.391Z,102329.94
2022-11-12T12:00:23.841Z,102326.59
2022-11-12T12:02:11.222Z,102335.19
2022-11-12T12:03:57.924Z,102327.44
2022-11-12T12:05:55.586Z,102326.72
2022-11-12T12:08:22.092Z,102322.44
2022-11-12T12:09:58.904Z,102326.81
2022-11-12T12:11:20.057Z,102324.25
2022-11-12T12:13:09.585Z,102322.44
2022-11-12T12:14:43.389Z,102317.19
2022-11-12T12:16:07.810Z,102324.41
2022-11-12T12:17:53.864Z,102325.31
2022-11-12T12:19:27.384Z,102322.84
2022-11-12T12:20:59.346Z,102324.78
2022-11-12T12:22:35.999Z,102333.09
2022-11-12T12:24:21.379Z,102329.78
2022-11-12T12:25:46.367Z,102330.59
2022-11-12T12:27:32.257Z,102329.00
2022-11-12T12:29:12.990Z,102326.44
2022-11-12T12:30:41.206Z,102330.88
2022-11-12T12:32:24.322Z,102326.59
2022-11-12T12:33:56.729Z,102324.06
2022-11-12T12:35:52.733Z,102330.16
2022-11-12T12:37:35.806Z,102327.53
2022-11-12T12:39:25.260Z,102336.59
2022-11-12T12:41:04.079Z,102329.59
2022-11-12T12:42:49.488Z,102328.69
2022-11-12T12:44:11.695Z,102326.25
2022-11-12T12:45:46.593Z,102330.81
2022-11-12T12:47:13.416Z,102319.44
2022-11-12T12:48:41.863Z,102315.94
2022-11-12T12:50:13.297Z,102322.97
2022-11-12T12:51:35.708Z,102319.25
2022-11-12T12:53:06.896Z,102321.94
2022-11-12T12:54:42.931Z,102328.03
2022-11-12T12:56:32.230Z,102324.56
2022-11-12T12:57:59.703Z,102327.06
2022-11-12T12:59:24.140Z,102319.97
2022-11-12T13:01:22.636Z,102330.28
2022-11-12T13:02:45.116Z,102326.75
2022-11-12T13:04:10.446Z,102325.88
2022-11-12T13:05:37.601Z,102321.44
2022-11-12T13:06:59.236Z,102338.03
2022-11-12T13:08:25.887Z,102335.41
2022-11-12T13:09:48.581Z,102335.16
2022-11-12T13:11:10.336Z,102335.84
2022-11-12T13:13:02.853Z,102337.38
2022-11-12T13:14:36.699Z,102341.66
2022-11-12T13:15:59.822Z,102338.22
2022-11-12T13:17:49.587Z,102332.44
2022-11-12T13:19:11.177Z,102339.16
2022-11-12T13:20:39.782Z,102338.94
2022-11-12T13:22:19.816Z,102346.00
2022-11-12T13:24:09.078Z,102341.88
2022-11-12T13:25:32.351Z,102344.50
2022-11-12T13:26:57.214Z,102339.41
2022-11-12T13:28:18.869Z,102347.66
2022-11-12T13:29:42.359Z,102344.75
2022-11-12T13:31:28.547Z,102341.91
2022-11-12T13:32:52.380Z,102347.38
2022-11-12T13:34:32.780Z,102342.03
2022-11-12T13:36:25.056Z,102347.16
2022-11-12T13:37:54.587Z,102342.69
2022-11-12T13:39:20.275Z,102344.50
2022-11-12T13:40:57.945Z,102334.59
2022-11-12T13:42:38.280Z,102344.50
2022-11-12T13:44:03.889Z,102343.38
2022-11-12T13:45:27.849Z,102343.38
2022-11-12T13:46:52.640Z,102346.00
2022-11-12T13:48:26.459Z,102340.59
2022-11-12T13:49:49.033Z,102340.59
2022-11-12T13:51:35.104Z,102344.94
2022-11-12T13:52:56.978Z,102341.75
2022-11-12T13:54:44.777Z,102342.66
2022-11-12T13:56:06.762Z,102344.91
2022-11-12T13:57:33.131Z,102351.97
2022-11-12T13:58:55.980Z,102350.31
2022-11-12T14:00:30.130Z,102342.50
2022-11-12T14:01:52.493Z,102343.41
2022-11-12T14:03:19.058Z,102343.41
2022-11-12T14:04:40.649Z,102345.22
2022-11-12T14:06:15.448Z,102340.97
2022-11-12T14:08:18.151Z,102341.75
2022-11-12T14:10:09.423Z,102339.81
2022-11-12T14:11:54.463Z,102345.06
2022-11-12T14:13:36.657Z,102348.34
2022-11-12T14:15:26.443Z,102343.84
2022-11-12T14:17:43.800Z,102338.75
2022-11-12T14:19:45.016Z,102341.34
2022-11-12T14:21:10.963Z,102343.75
2022-11-12T14:22:44.488Z,102343.44
2022-11-12T14:24:11.115Z,102348.53
2022-11-12T14:25:33.016Z,102350.19
2022-11-12T14:26:54.274Z,102355.50
2022-11-12T14:28:33.717Z,102349.50
2022-11-12T14:30:24.401Z,102349.66
2022-11-12T14:31:46.832Z,102340.91
2022-11-12T14:33:10.917Z,102344.50
2022-11-12T14:34:34.402Z,102344.50
2022-11-12T14:36:13.741Z,102343.69
2022-11-12T14:37:43.313Z,102339.16
2022-11-12T14:39:06.501Z,102335.41
2022-11-12T14:40:35.608Z,102347.06
2022-11-12T14:42:00.048Z,102354.00
2022-11-12T14:43:42.275Z,102339.84
2022-11-12T14:45:03.885Z,102346.06
2022-11-12T14:46:44.125Z,102342.59
2022-11-12T14:48:09.678Z,102346.13
2022-11-12T14:49:45.066Z,102351.31
2022-11-12T14:51:11.147Z,102357.47
2022-11-12T14:52:42.031Z,102354.00
2022-11-12T14:54:08.668Z,102353.09
2022-11-12T14:55:36.922Z,102343.44
2022-11-12T14:57:01.283Z,102345.16
2022-11-12T14:58:24.605Z,102339.06
2022-11-12T14:59:46.396Z,102337.34
2022-11-12T15:03:31.213Z,102345.66
2022-11-12T15:05:04.899Z,102349.16
2022-11-12T15:06:32.584Z,102351.84
2022-11-12T15:08:06.026Z,102350.94
2022-11-12T15:09:37.687Z,102349.09
2022-11-12T15:11:21.442Z,102352.53
2022-11-12T15:12:43.323Z,102347.16
2022-11-12T15:14:04.642Z,102357.66
2022-11-12T15:15:26.072Z,102355.03
2022-11-12T15:16:47.923Z,102355.03
2022-11-12T15:18:22.833Z,102353.28
2022-11-12T15:19:44.427Z,102356.16
2022-11-12T15:21:12.084Z,102349.09
2022-11-12T15:22:34.649Z,102351.78
2022-11-12T15:24:20.621Z,102355.28
2022-11-12T15:25:42.832Z,102357.88
2022-11-12T15:27:38.148Z,102358.53
2022-11-12T15:29:31.696Z,102353.38
2022-11-12T15:31:16.607Z,102358.41
2022-11-12T15:32:38.143Z,102355.78
2022-11-12T15:34:52.107Z,102351.97
2022-11-12T15:36:20.624Z,102353.94
2022-11-12T15:37:43.562Z,102351.31
2022-11-12T15:39:14.418Z,102358.88
2022-11-12T15:40:43.594Z,102359.53
2022-11-12T15:42:17.771Z,102365.78
2022-11-12T15:43:42.946Z,102365.94
2022-11-12T15:45:19.989Z,102362.31
2022-11-12T15:46:48.048Z,102366.81
2022-11-12T15:48:12.649Z,102366.06
2022-11-12T15:49:35.225Z,102360.00
2022-11-12T15:50:57.055Z,102361.50
2022-11-12T15:52:19.944Z,102374.63
2022-11-12T15:53:41.629Z,102364.13
2022-11-12T15:55:03.375Z,102367.72
2022-11-12T15:56:24.849Z,102372.06
2022-11-12T15:57:52.232Z,102369.44
2022-11-12T15:59:17.467Z,102378.50
2022-11-12T16:00:39.673Z,102378.50
2022-11-12T16:02:01.122Z,102385.63
2022-11-12T16:03:22.980Z,102387.56
2022-11-12T16:04:44.708Z,102383.22
2022-11-12T16:06:09.343Z,102384.88
2022-11-12T16:07:31.339Z,102380.59
2022-11-12T16:08:53.013Z,102385.97
2022-11-12T16:10:17.548Z,102396.47
2022-11-12T16:11:39.002Z,102400.81
2022-11-12T16:13:04.180Z,102403.59
2022-11-12T16:14:26.544Z,102401.03
2022-11-12T16:15:51.569Z,102399.38
2022-11-12T16:17:18.568Z,102400.38
2022-11-12T16:18:39.712Z,102397.66
2022-11-12T16:20:01.470Z,102401.13
2022-11-12T16:21:23.225Z,102406.38
2022-11-12T16:22:45.051Z,102414.31
2022-11-12T16:24:07.405Z,102400.38
2022-11-12T16:25:32.596Z,102403.00
2022-11-12T16:26:57.670Z,102393.44
2022-11-12T16:28:19.831Z,102399.56
2022-11-12T16:29:41.725Z,102397.78
2022-11-12T16:31:03.302Z,102398.81
2022-11-12T16:32:24.900Z,102397.03
2022-11-12T16:33:46.261Z,102395.22
2022-11-12T16:35:08.185Z,102397.03
2022-11-12T16:36:29.625Z,102397.09
2022-11-12T16:37:54.661Z,102397.19
2022-11-12T16:39:16.367Z,102398.97
2022-11-12T16:40:38.333Z,102396.13
2022-11-12T16:42:00.038Z,102396.28